createdAt,value
2023-01-21T00:02:47.827Z,103276.84
2023-01-21T00:07:50.545Z,103295.94
2023-01-21T00:12:53.291Z,103316.56
2023-01-21T00:17:55.950Z,103318.97
2023-01-21T00:22:58.727Z,103327.22
2023-01-21T00:28:01.728Z,103343.91
2023-01-21T00:33:04.957Z,103348.69
2023-01-21T00:38:07.584Z,103365.91
2023-01-21T00:43:10.316Z,103391.88
2023-01-21T00:48:13.048Z,103380.56
2023-01-21T00:53:15.673Z,103368.69
2023-01-21T00:58:18.528Z,103381.38
2023-01-21T01:03:21.405Z,103401.69
2023-01-21T01:08:24.392Z,103413.41
2023-01-21T01:13:27.992Z,103416.19
2023-01-21T01:18:32.924Z,103420.84
2023-01-21T01:23:35.625Z,103421.94
2023-01-21T01:28:38.331Z,103414.28
2023-01-21T01:33:41.361Z,103434.59
2023-01-21T01:38:45.034Z,103454.78
2023-01-21T01:44:00.697Z,103475.56
2023-01-21T01:49:15.549Z,103489.78
2023-01-21T01:54:22.747Z,103517.38
2023-01-21T01:59:25.611Z,103518.75
2023-01-21T02:04:31.457Z,103532.75
2023-01-21T02:09:34.343Z,103533.63
2023-01-21T02:14:43.159Z,103536.34
2023-01-21T02:20:43.247Z,103554.69
2023-01-21T02:26:10.382Z,103557.56
2023-01-21T02:31:18.825Z,103579.75
2023-01-21T02:36:51.854Z,103583.84
2023-01-21T02:42:08.557Z,103581.09
2023-01-21T02:47:30.738Z,103585.88
2023-01-21T02:52:33.513Z,103583.84
2023-01-21T02:57:39.018Z,103585.88
2023-01-21T03:02:52.526Z,103609.38
2023-01-21T03:08:10.341Z,103612.91
2023-01-21T03:13:43.356Z,103616.00
2023-01-21T03:18:47.622Z,103622.16
2023-01-21T03:23:51.913Z,103590.97
2023-01-21T03:28:56.663Z,103617.28
2023-01-21T03:34:01.903Z,103617.53
2023-01-21T03:39:10.293Z,103634.03
2023-01-21T03:44:13.138Z,103632.19
2023-01-21T03:49:35.529Z,103648.16
2023-01-21T03:54:38.191Z,103643.72
2023-01-21T03:59:40.902Z,103659.66
2023-01-21T04:04:43.689Z,103647.69
2023-01-21T04:09:46.401Z,103643.81
2023-01-21T04:14:49.210Z,103642.00
2023-01-21T04:19:51.974Z,103663.53
2023-01-21T04:24:54.594Z,103681.41
2023-01-21T04:29:57.533Z,103674.44
2023-01-21T04:35:00.209Z,103686.41
2023-01-21T04:40:02.904Z,103687.69
2023-01-21T04:45:06.304Z,103695.59
2023-01-21T04:50:10.193Z,103671.94
2023-01-21T04:55:12.999Z,103702.28
2023-01-21T05:00:16.663Z,103712.84
2023-01-21T05:05:20.175Z,103694.97
2023-01-21T05:10:22.942Z,103705.25
2023-01-21T05:15:25.709Z,103693.47
2023-01-21T05:20:28.474Z,103713.59
2023-01-21T05:25:31.125Z,103737.47
2023-01-21T05:30:33.761Z,103733.41
2023-01-21T05:35:36.454Z,103749.88
2023-01-21T05:40:39.113Z,103740.63
2023-01-21T05:45:41.800Z,103759.22
2023-01-21T05:50:44.545Z,103728.31
2023-01-21T05:55:47.308Z,103744.69
2023-01-21T06:00:50.184Z,103764.81
2023-01-21T06:05:52.888Z,103752.94
2023-01-21T06:10:56.788Z,103754.81
2023-01-21T06:15:59.533Z,103762.94
2023-01-21T06:21:02.583Z,103759.66
2023-01-21T06:26:05.782Z,103774.91
2023-01-21T06:31:08.594Z,103782.63
2023-01-21T06:36:11.355Z,103763.91
2023-01-21T06:41:14.029Z,103794.72
2023-01-21T06:46:16.997Z,103803.94
2023-01-21T06:51:19.844Z,103800.91
2023-01-21T06:56:22.855Z,103821.13
2023-01-21T07:01:25.590Z,103816.34
2023-01-21T07:06:28.296Z,103802.47
2023-01-21T07:11:31.834Z,103802.56
2023-01-21T07:16:34.570Z,103828.44
2023-01-21T07:21:37.306Z,103812.13
2023-01-21T07:26:40.199Z,103831.31
2023-01-21T07:31:44.266Z,103829.44
2023-01-21T07:36:47.132Z,103849.03
2023-01-21T07:41:49.887Z,103867.31
2023-01-21T07:46:53.772Z,103909.06
2023-01-21T07:51:59.343Z,103900.31
2023-01-21T07:57:02.332Z,103876.06
2023-01-21T08:02:05.197Z,103901.91
2023-01-21T08:07:12.795Z,103890.13
2023-01-21T08:12:15.757Z,103890.81
2023-01-21T08:17:18.521Z,103893.06
2023-01-21T08:22:21.469Z,103908.97
2023-01-21T08:27:24.528Z,103906.53
2023-01-21T08:32:30.461Z,103942.06
2023-01-21T08:37:33.257Z,103951.16
2023-01-21T08:42:35.939Z,103958.47
2023-01-21T08:47:38.711Z,103963.88
2023-01-21T08:52:41.428Z,103979.84
2023-01-21T08:57:44.232Z,103974.94
2023-01-21T09:02:47.193Z,103992.00
2023-01-21T09:07:50.000Z,103993.88
2023-01-21T09:12:54.084Z,103998.94
2023-01-21T09:17:56.977Z,103979.34
2023-01-21T09:22:59.799Z,104017.13
2023-01-21T09:28:04.250Z,104025.28
2023-01-21T09:33:06.955Z,104036.47
2023-01-21T09:38:09.642Z,104037.38
2023-01-21T09:43:18.157Z,104052.53
2023-01-21T09:48:28.995Z,104061.72
2023-01-21T09:53:40.793Z,104037.84
2023-01-21T09:58:49.692Z,104041.75
2023-01-21T10:03:57.132Z,104041.28
2023-01-21T10:09:16.289Z,104041.28
2023-01-21T10:14:42.640Z,104046.56
2023-01-21T10:19:53.313Z,104038.56
2023-01-21T10:24:55.776Z,104014.44
2023-01-21T10:30:06.634Z,104056.88
2023-01-21T10:35:20.779Z,104047.94
2023-01-21T10:40:43.710Z,104038.75
2023-01-21T10:46:02.924Z,104064.84
2023-01-21T10:51:14.765Z,104075.84
2023-01-21T10:56:26.602Z,104077.44
2023-01-21T11:01:38.504Z,104082.59
2023-01-21T11:06:41.818Z,104067.34
2023-01-21T11:11:46.733Z,104083.38
2023-01-21T11:16:50.640Z,104059.28
2023-01-21T11:22:07.227Z,104076.25
2023-01-21T11:27:22.280Z,104076.69
2023-01-21T11:32:27.757Z,104088.13
2023-01-21T11:37:31.599Z,104074.44
2023-01-21T11:42:34.328Z,104094.22
2023-01-21T11:47:48.957Z,104101.31
2023-01-21T11:53:14.183Z,104112.09
2023-01-21T11:58:20.032Z,104122.84
2023-01-21T12:03:27.194Z,104082.53
2023-01-21T12:08:33.081Z,104138.72
2023-01-21T12:13:46.582Z,104132.31
2023-01-21T12:19:17.003Z,104149.31
2023-01-21T12:24:34.992Z,104104.66
2023-01-21T12:30:08.463Z,104134.34
2023-01-21T12:35:15.588Z,104144.88
2023-01-21T12:40:35.100Z,104049.78
2023-01-21T12:45:42.106Z,104139.75
2023-01-21T12:50:50.592Z,104134.72
2023-01-21T12:56:18.904Z,104132.25
2023-01-21T13:01:42.142Z,104141.13
2023-01-21T13:06:54.133Z,104143.13
2023-01-21T13:12:13.417Z,104135.47
2023-01-21T13:17:19.855Z,104150.84
2023-01-21T13:23:01.994Z,104151.88
2023-01-21T13:28:23.039Z,104160.81
2023-01-21T13:33:38.654Z,104162.91
2023-01-21T13:38:54.043Z,104166.88
2023-01-21T13:44:14.448Z,104175.03
2023-01-21T13:49:35.284Z,104180.78
2023-01-21T13:55:25.725Z,104183.03
2023-01-21T14:00:37.366Z,104190.97
2023-01-21T14:05:42.261Z,104186.59
2023-01-21T14:10:54.556Z,104184.09
2023-01-21T14:16:09.737Z,104178.34
2023-01-21T14:21:15.879Z,104184.88
2023-01-21T14:26:49.077Z,104184.00
2023-01-21T14:31:56.239Z,104180.53
2023-01-21T14:37:01.924Z,104178.16
2023-01-21T14:42:15.200Z,104178.16
2023-01-21T14:47:29.657Z,104191.63
2023-01-21T14:52:43.737Z,104206.78
2023-01-21T14:57:46.734Z,104209.03
2023-01-21T15:03:28.388Z,104217.50
2023-01-21T15:08:45.430Z,104202.41
2023-01-21T15:14:15.419Z,104207.56
2023-01-21T15:19:30.061Z,104214.56
2023-01-21T15:24:35.874Z,104206.09
2023-01-21T15:29:45.568Z,104201.31
2023-01-21T15:34:50.115Z,104170.19
2023-01-21T15:39:58.882Z,104203.13
2023-01-21T15:45:24.363Z,104191.91
2023-01-21T15:50:56.876Z,104193.38
2023-01-21T15:56:08.620Z,104189.16
2023-01-21T16:01:37.481Z,104191.41
2023-01-21T16:07:14.239Z,104186.94
2023-01-21T16:12:29.112Z,104168.75
2023-01-21T16:17:34.729Z,104153.44
2023-01-21T16:22:39.364Z,104160.22
2023-01-21T16:27:47.392Z,104150.66
2023-01-21T16:33:07.903Z,104142.38
2023-01-21T16:38:15.674Z,104147.53
2023-01-21T16:43:23.741Z,104142.94
2023-01-21T16:48:31.812Z,104153.03
2023-01-21T16:53:34.570Z,104144.78
2023-01-21T16:58:37.306Z,104152.53
2023-01-21T17:03:40.096Z,104146.63
2023-01-21T17:08:46.931Z,104146.78
2023-01-21T17:13:49.919Z,104142.56
2023-01-21T17:18:58.368Z,104163.72
2023-01-21T17:24:03.957Z,104137.19
2023-01-21T17:29:22.912Z,104151.38
2023-01-21T17:34:30.572Z,104135.19
2023-01-21T17:39:45.423Z,104145.66
2023-01-21T17:44:49.848Z,104137.34
2023-01-21T17:50:09.465Z,104152.44
2023-01-21T17:55:13.044Z,104150.06
2023-01-21T18:00:27.289Z,104146.94
2023-01-21T18:05:30.502Z,104136.44
2023-01-21T18:10:33.399Z,104130.72
2023-01-21T18:15:36.064Z,104150.22
2023-01-21T18:20:39.091Z,104136.63
2023-01-21T18:25:42.543Z,104142.81
2023-01-21T18:30:45.542Z,104146.50
2023-01-21T18:35:50.101Z,104143.03
2023-01-21T18:40:53.876Z,104125.00
2023-01-21T18:45:56.653Z,104123.22
2023-01-21T18:50:59.367Z,104134.97
2023-01-21T18:56:02.122Z,104143.22
2023-01-21T19:01:17.292Z,104141.94
2023-01-21T19:06:24.934Z,104138.84
2023-01-21T19:11:27.659Z,104150.22
2023-01-21T19:16:30.369Z,104155.97
2023-01-21T19:21:33.589Z,104156.72
2023-01-21T19:26:36.600Z,104138.28
2023-01-21T19:31:39.366Z,104146.94
2023-01-21T19:36:42.158Z,104142.16
2023-01-21T19:41:45.073Z,104142.34
2023-01-21T19:46:47.935Z,104143.63
2023-01-21T19:51:50.671Z,104137.88
2023-01-21T19:56:53.406Z,104152.41
2023-01-21T20:01:56.090Z,104149.81
2023-01-21T20:06:58.931Z,104145.56
2023-01-21T20:12:03.507Z,104154.03
2023-01-21T20:17:11.804Z,104141.16
2023-01-21T20:22:14.475Z,104130.47
2023-01-21T20:27:17.136Z,104126.09
2023-01-21T20:32:21.148Z,104116.16
2023-01-21T20:37:23.953Z,104108.66
2023-01-21T20:42:27.944Z,104101.50
2023-01-21T20:47:38.085Z,104115.44
2023-01-21T20:52:41.664Z,104092.44
2023-01-21T20:57:44.425Z,104089.88
2023-01-21T21:02:47.619Z,104086.56
2023-01-21T21:07:50.520Z,104076.09
2023-01-21T21:12:53.573Z,104099.28
2023-01-21T21:17:56.746Z,104104.38
2023-01-21T21:22:59.442Z,104113.91
2023-01-21T21:28:02.184Z,104123.50
2023-01-21T21:33:04.917Z,104130.28
2023-01-21T21:38:18.251Z,104123.06
2023-01-21T21:43:36.001Z,104129.31
2023-01-21T21:48:38.770Z,104139.03
2023-01-21T21:53:41.813Z,104132.56
2023-01-21T21:58:44.478Z,104123.84
2023-01-21T22:03:47.401Z,104081.91
2023-01-21T22:08:50.201Z,104113.94
2023-01-21T22:13:53.929Z,104053.28
2023-01-21T22:19:00.763Z,104100.56
2023-01-21T22:24:06.030Z,104070.44
2023-01-21T22:29:08.920Z,104089.75
2023-01-21T22:34:14.804Z,104082.78
2023-01-21T22:39:17.667Z,104079.63
2023-01-21T22:44:20.433Z,104066.06
2023-01-21T22:49:23.112Z,104063.09
2023-01-21T22:54:25.805Z,104045.47
2023-01-21T22:59:28.579Z,104044.53
2023-01-21T23:04:31.235Z,104038.28
2023-01-21T23:09:34.270Z,104024.84
2023-01-21T23:14:36.899Z,104030.91
2023-01-21T23:19:39.929Z,104003.34
2023-01-21T23:24:42.539Z,104014.38
2023-01-21T23:29:45.179Z,104005.53
2023-01-21T23:34:47.990Z,104023.19
2023-01-21T23:39:50.872Z,104005.34
2023-01-21T23:44:53.472Z,104013.63
2023-01-21T23:49:56.160Z,104040.25
2023-01-21T23:54:58.905Z,104038.19
